TimeIST,TemperatureF,Dew PointF,Humidity,Sea Level PressureIn,VisibilityMPH,Wind Direction,Wind SpeedMPH,Gust SpeedMPH,PrecipitationIn,Events,Conditions,WindDirDegrees,DateUTC
12:00 AM,71.6,66.2,83,29.80,2.5,Calm,Calm,-,N/A,,Mist,0,2012-10-08 18:30:00
1:00 AM,69.8,66.2,88,29.80,2.5,Calm,Calm,-,N/A,,Mist,0,2012-10-08 19:30:00
2:00 AM,69.8,66.2,88,29.77,2.5,Calm,Calm,-,N/A,,Mist,0,2012-10-08 20:30:00
3:00 AM,68.0,64.4,88,29.77,2.2,Calm,Calm,-,N/A,,Mist,0,2012-10-08 21:30:00
4:00 AM,68.0,66.2,94,29.77,2.2,Calm,Calm,-,N/A,,Mist,0,2012-10-08 22:30:00
5:30 AM,68.0,64.4,88,29.74,1.9,Calm,Calm,-,N/A,,Mist,0,2012-10-09 00:00:00
6:00 AM,68.0,64.4,88,29.77,1.2,Calm,Calm,-,N/A,,Mist,0,2012-10-09 00:30:00
6:30 AM,66.2,64.4,94,29.77,1.2,Calm,Calm,-,N/A,,Mist,0,2012-10-09 01:00:00
7:00 AM,68.0,64.4,88,29.80,1.2,Calm,Calm,-,N/A,,Mist,0,2012-10-09 01:30:00
7:30 AM,69.8,64.4,83,29.80,1.2,Calm,Calm,-,N/A,,Mist,0,2012-10-09 02:00:00
8:30 AM,76,67,66,29.83,1,WSW,3.5,,,,Haze,250,2012-10-09 03:00:00
8:30 AM,77.0,66.2,69,29.83,1.6,WSW,3.5,-,N/A,,Haze,250,2012-10-09 03:00:00
9:30 AM,82.4,66.2,58,29.83,1.9,WSW,4.6,-,N/A,,Haze,250,2012-10-09 04:00:00
10:30 AM,87.8,68.0,52,29.83,2.8,WSW,4.6,-,N/A,,Haze,250,2012-10-09 05:00:00
11:30 AM,89.6,64.4,43,29.80,3.1,West,5.8,-,N/A,,Haze,270,2012-10-09 06:00:00
12:00 PM,89.6,64.4,43,29.80,3.1,West,4.6,-,N/A,,Haze,270,2012-10-09 06:30:00
12:30 PM,91.4,66.2,43,29.77,3.1,West,4.6,-,N/A,,Haze,270,2012-10-09 07:00:00
1:00 PM,91.4,68.0,46,29.74,3.1,West,4.6,-,N/A,,Haze,270,2012-10-09 07:30:00
1:30 PM,91.4,66.2,43,29.74,3.1,West,5.8,-,N/A,,Haze,270,2012-10-09 08:00:00
2:00 PM,91.4,66.2,43,29.74,3.1,NW,5.8,-,N/A,,Haze,320,2012-10-09 08:30:00
2:30 PM,91.4,66.2,43,29.71,3.7,NW,5.8,-,N/A,,Unknown,320,2012-10-09 09:00:00
3:00 PM,91.4,66.2,43,29.71,3.7,NW,5.8,-,N/A,,Unknown,320,2012-10-09 09:30:00
4:00 PM,89.6,68.0,49,29.71,3.7,NW,4.6,-,N/A,,Unknown,320,2012-10-09 10:30:00
4:30 PM,89.6,68.0,49,29.71,3.7,NW,4.6,-,N/A,,Unknown,320,2012-10-09 11:00:00
6:00 PM,82.4,69.8,66,29.71,3.1,Variable,2.3,-,N/A,,Haze,0,2012-10-09 12:30:00
6:30 PM,80.6,69.8,70,29.71,3.1,Calm,Calm,-,N/A,,Haze,0,2012-10-09 13:00:00
7:00 PM,77.0,68.0,74,29.74,3.1,Calm,Calm,-,N/A,,Haze,0,2012-10-09 13:30:00
7:30 PM,75.2,69.8,83,29.74,3.1,SW,3.5,-,N/A,,Haze,230,2012-10-09 14:00:00
8:00 PM,73.4,69.8,88,29.74,3.1,Variable,2.3,-,N/A,,Haze,0,2012-10-09 14:30:00
8:30 PM,75.2,68.0,78,29.77,2.8,Variable,2.3,-,N/A,,Haze,0,2012-10-09 15:00:00
9:00 PM,75.2,68.0,78,29.77,2.8,Calm,Calm,-,N/A,,Mist,0,2012-10-09 15:30:00
10:00 PM,73.4,66.2,78,29.80,2.5,Calm,Calm,-,N/A,,Mist,0,2012-10-09 16:30:00
11:00 PM,73.4,66.2,78,29.80,2.5,ESE,4.6,-,N/A,,Partly Cloudy,120,2012-10-09 17:30:00
11:30 PM,73,69,82,29.38,2,SE,4.6,,,,Mist,140,2012-10-09 18:00:00